createdAt,value
2018-01-26T00:01:41.829Z,18.47
2018-01-26T00:04:09.775Z,19.27
2018-01-26T00:06:37.714Z,16.80
2018-01-26T00:09:05.673Z,18.10
2018-01-26T00:11:33.632Z,16.47
2018-01-26T00:14:01.598Z,15.13
2018-01-26T00:16:29.517Z,16.53
2018-01-26T00:18:57.466Z,15.17
2018-01-26T00:21:25.403Z,16.90
2018-01-26T00:23:53.338Z,22.43
2018-01-26T00:26:21.274Z,21.03
2018-01-26T00:28:49.242Z,16.70
2018-01-26T00:31:17.270Z,14.77
2018-01-26T00:33:45.219Z,23.37
2018-01-26T00:36:13.145Z,20.90
2018-01-26T00:38:41.097Z,16.40
2018-01-26T00:41:09.857Z,27.90
2018-01-26T00:43:37.776Z,17.03
2018-01-26T00:46:05.820Z,16.20
2018-01-26T00:48:34.345Z,12.80
2018-01-26T00:51:02.298Z,17.97
2018-01-26T00:53:30.238Z,15.07
2018-01-26T00:55:58.196Z,14.83
2018-01-26T00:58:26.206Z,18.83
2018-01-26T01:00:54.278Z,22.57
2018-01-26T01:03:22.274Z,22.60
2018-01-26T01:05:50.219Z,11.87
2018-01-26T01:08:18.209Z,16.60
2018-01-26T01:10:46.158Z,18.60
2018-01-26T01:13:14.084Z,17.10
2018-01-26T01:15:42.069Z,23.20
2018-01-26T01:18:10.031Z,16.57
2018-01-26T01:20:37.981Z,15.60
2018-01-26T01:23:05.905Z,19.80
2018-01-26T01:25:33.825Z,20.60
2018-01-26T01:28:01.786Z,16.80
2018-01-26T01:30:29.732Z,17.53
2018-01-26T01:32:57.662Z,16.73
2018-01-26T01:35:25.597Z,16.07
2018-01-26T01:37:53.522Z,17.50
2018-01-26T01:40:21.460Z,22.53
2018-01-26T01:42:49.402Z,16.30
2018-01-26T01:45:17.397Z,18.63
2018-01-26T01:47:45.383Z,15.17
2018-01-26T01:50:13.301Z,20.03
2018-01-26T01:52:41.241Z,15.90
2018-01-26T01:55:09.159Z,15.00
2018-01-26T01:57:37.127Z,21.40
2018-01-26T02:00:05.077Z,16.27
2018-01-26T02:02:33.843Z,16.60
2018-01-26T02:05:01.786Z,19.90
2018-01-26T02:07:29.729Z,18.90
2018-01-26T02:09:57.637Z,16.50
2018-01-26T02:12:25.562Z,16.23
2018-01-26T02:14:53.477Z,20.17
2018-01-26T02:17:21.430Z,18.47
2018-01-26T02:19:49.374Z,14.40
2018-01-26T02:22:17.305Z,19.17
2018-01-26T02:24:45.234Z,22.83
2018-01-26T02:27:13.640Z,19.30
2018-01-26T02:29:41.613Z,18.23
2018-01-26T02:32:09.551Z,20.50
2018-01-26T02:34:37.509Z,18.60
2018-01-26T02:37:05.437Z,15.57
2018-01-26T02:39:33.460Z,15.80
2018-01-26T02:42:01.395Z,22.57
2018-01-26T02:44:29.293Z,16.27
2018-01-26T02:46:57.230Z,17.57
2018-01-26T02:49:25.157Z,20.10
2018-01-26T02:51:53.080Z,22.90
2018-01-26T02:54:21.002Z,16.73
2018-01-26T02:56:49.007Z,16.00
2018-01-26T02:59:16.998Z,18.27
2018-01-26T03:01:44.967Z,16.07
2018-01-26T03:04:13.664Z,24.17
2018-01-26T03:06:41.609Z,17.60
2018-01-26T03:09:09.568Z,18.53
2018-01-26T03:11:37.503Z,20.30
2018-01-26T03:14:05.433Z,19.57
2018-01-26T03:16:34.049Z,19.83
2018-01-26T03:19:01.981Z,20.03
2018-01-26T03:21:29.922Z,21.77
2018-01-26T03:23:57.862Z,18.73
2018-01-26T03:26:25.921Z,23.17
2018-01-26T03:28:53.842Z,28.43
2018-01-26T03:31:21.772Z,25.83
2018-01-26T03:33:49.743Z,20.97
2018-01-26T03:36:17.980Z,24.57
2018-01-26T03:38:45.915Z,25.23
2018-01-26T03:41:13.860Z,24.60
2018-01-26T03:43:41.829Z,24.60
2018-01-26T03:46:09.752Z,24.97
2018-01-26T03:48:37.690Z,27.80
2018-01-26T03:51:05.611Z,22.20
2018-01-26T03:53:33.551Z,27.30
2018-01-26T03:56:01.501Z,25.70
2018-01-26T03:58:29.449Z,24.03
2018-01-26T04:00:57.387Z,29.93
2018-01-26T04:03:25.326Z,28.43
2018-01-26T04:05:53.258Z,21.90
2018-01-26T04:08:21.177Z,25.10
2018-01-26T04:10:49.107Z,22.27
2018-01-26T04:13:17.040Z,22.60
2018-01-26T04:15:44.980Z,21.77
2018-01-26T04:18:12.904Z,23.73
2018-01-26T04:23:15.010Z,28.13
2018-01-26T04:25:42.965Z,27.60
2018-01-26T04:28:10.917Z,24.20
2018-01-26T04:30:38.853Z,27.40
2018-01-26T04:33:06.833Z,30.57
2018-01-26T04:35:34.866Z,20.67
2018-01-26T04:38:02.801Z,26.37
2018-01-26T04:40:30.733Z,21.17
2018-01-26T04:42:58.693Z,29.33
2018-01-26T04:45:26.615Z,26.80
2018-01-26T04:47:54.559Z,25.57
2018-01-26T04:50:22.505Z,23.73
2018-01-26T04:52:50.725Z,25.77
2018-01-26T04:55:18.633Z,30.33
2018-01-26T04:57:46.698Z,28.83
2018-01-26T05:00:14.989Z,22.90
2018-01-26T05:02:43.014Z,24.17
2018-01-26T05:05:10.950Z,27.17
2018-01-26T05:07:38.905Z,28.37
2018-01-26T05:10:06.839Z,26.10
2018-01-26T05:12:34.794Z,24.83
2018-01-26T05:15:02.760Z,26.00
2018-01-26T05:17:30.885Z,27.03
2018-01-26T05:19:58.812Z,23.17
2018-01-26T05:22:26.847Z,27.40
2018-01-26T05:24:54.776Z,35.53
2018-01-26T05:27:22.740Z,23.67
2018-01-26T05:29:50.682Z,28.37
2018-01-26T05:32:18.606Z,31.10
2018-01-26T05:34:46.524Z,26.63
2018-01-26T05:37:14.645Z,30.93
2018-01-26T05:39:42.661Z,33.30
2018-01-26T05:42:10.659Z,29.13
2018-01-26T05:44:38.605Z,24.40
2018-01-26T05:47:06.530Z,30.80
2018-01-26T05:49:34.485Z,30.50
2018-01-26T05:52:02.405Z,24.70
2018-01-26T05:54:30.386Z,34.63
2018-01-26T05:56:58.313Z,29.47
2018-01-26T05:59:26.238Z,37.53
2018-01-26T06:01:54.179Z,37.07
2018-01-26T06:04:22.129Z,33.80
2018-01-26T06:06:50.049Z,37.00
2018-01-26T06:09:17.995Z,34.90
2018-01-26T06:11:45.961Z,31.20
2018-01-26T06:14:13.894Z,32.53
2018-01-26T06:16:41.928Z,32.03
2018-01-26T06:19:09.842Z,32.50
2018-01-26T06:21:37.755Z,36.37
2018-01-26T06:24:05.721Z,33.13
2018-01-26T06:26:34.351Z,30.97
2018-01-26T06:29:02.273Z,32.50
2018-01-26T06:31:30.202Z,32.73
2018-01-26T06:33:58.154Z,32.93
2018-01-26T06:36:26.063Z,29.90
2018-01-26T06:38:54.005Z,37.63
2018-01-26T06:41:22.045Z,38.23
2018-01-26T06:43:50.649Z,31.87
2018-01-26T06:46:18.577Z,36.47
2018-01-26T06:48:46.545Z,32.67
2018-01-26T06:51:14.445Z,37.87
2018-01-26T06:53:42.383Z,31.63
2018-01-26T06:56:10.322Z,33.93
2018-01-26T06:58:38.417Z,36.33
2018-01-26T07:01:06.421Z,33.10
2018-01-26T07:03:34.361Z,38.13
2018-01-26T07:06:02.301Z,52.60
2018-01-26T07:08:30.275Z,47.90
2018-01-26T07:10:58.186Z,40.73
2018-01-26T07:13:26.194Z,32.20
2018-01-26T07:15:54.130Z,35.50
2018-01-26T07:18:22.108Z,36.77
2018-01-26T07:20:50.020Z,37.13
2018-01-26T07:23:18.039Z,42.87
2018-01-26T07:25:45.985Z,58.50
2018-01-26T07:28:14.233Z,41.13
2018-01-26T07:30:42.229Z,42.90
2018-01-26T07:33:10.171Z,33.23
2018-01-26T07:35:38.139Z,31.47
2018-01-26T07:38:06.104Z,32.40
2018-01-26T07:40:34.115Z,38.40
2018-01-26T07:43:02.287Z,35.10
2018-01-26T07:45:30.223Z,37.23
2018-01-26T07:47:58.224Z,30.77
2018-01-26T07:50:26.363Z,30.70
2018-01-26T07:52:54.328Z,37.90
2018-01-26T07:55:22.305Z,26.33
2018-01-26T07:57:50.262Z,30.70
2018-01-26T08:00:18.272Z,30.17
2018-01-26T08:02:46.246Z,29.37
2018-01-26T08:05:14.185Z,31.90
2018-01-26T08:07:42.195Z,30.20
2018-01-26T08:10:10.133Z,28.77
2018-01-26T08:12:38.257Z,30.23
2018-01-26T08:15:06.055Z,29.47
2018-01-26T08:17:34.010Z,31.67
2018-01-26T08:20:02.037Z,32.20
2018-01-26T08:22:29.939Z,33.27
2018-01-26T08:24:58.050Z,26.53
2018-01-26T08:27:25.989Z,27.17
2018-01-26T08:29:53.907Z,30.27
2018-01-26T08:32:22.803Z,29.03
2018-01-26T08:34:50.736Z,27.53
2018-01-26T08:37:18.763Z,24.63
2018-01-26T08:39:46.712Z,27.13
2018-01-26T08:42:14.667Z,27.83
2018-01-26T08:44:42.595Z,28.83
2018-01-26T08:47:10.530Z,29.07
2018-01-26T08:49:38.457Z,31.10
2018-01-26T08:52:06.377Z,30.80
2018-01-26T08:54:34.321Z,25.97
2018-01-26T08:57:02.257Z,29.27
2018-01-26T08:59:30.484Z,27.43
2018-01-26T09:01:58.558Z,25.73
2018-01-26T09:04:26.496Z,26.80
2018-01-26T09:06:54.439Z,29.53
2018-01-26T09:09:22.362Z,23.37
2018-01-26T09:11:50.298Z,27.73
2018-01-26T09:14:18.237Z,23.40
2018-01-26T09:16:46.165Z,21.60
2018-01-26T09:19:14.077Z,22.13
2018-01-26T09:21:42.020Z,28.33
2018-01-26T09:24:09.946Z,24.97
2018-01-26T09:26:37.879Z,21.77
2018-01-26T09:29:05.838Z,22.77
2018-01-26T09:31:33.757Z,29.50
2018-01-26T09:34:01.744Z,25.23
2018-01-26T09:36:29.661Z,24.47
2018-01-26T09:38:57.706Z,24.53
2018-01-26T09:41:25.702Z,25.43
2018-01-26T09:43:53.624Z,27.37
2018-01-26T09:46:21.564Z,25.93
2018-01-26T09:48:49.493Z,30.93
2018-01-26T09:51:17.406Z,25.53
2018-01-26T09:53:45.360Z,27.23
2018-01-26T09:56:13.294Z,24.10
2018-01-26T09:58:41.240Z,23.83
2018-01-26T10:01:09.165Z,26.33
2018-01-26T10:03:37.100Z,25.03
2018-01-26T10:06:05.043Z,25.80
2018-01-26T10:08:32.982Z,25.97
2018-01-26T10:11:00.890Z,29.83
2018-01-26T10:13:28.822Z,23.63
2018-01-26T10:15:56.757Z,25.77
2018-01-26T10:18:24.718Z,30.83
2018-01-26T10:20:53.073Z,25.47
2018-01-26T10:23:21.012Z,28.30
2018-01-26T10:25:48.971Z,31.40
2018-01-26T10:28:16.928Z,25.23
2018-01-26T10:30:44.816Z,27.40
2018-01-26T10:33:12.758Z,27.37
2018-01-26T10:35:40.775Z,25.33
2018-01-26T10:38:08.730Z,30.60
2018-01-26T10:40:36.645Z,27.17
2018-01-26T10:43:04.593Z,33.43
2018-01-26T10:45:32.552Z,30.53
2018-01-26T10:48:00.478Z,27.13
2018-01-26T10:50:28.414Z,36.13
2018-01-26T10:52:56.334Z,31.90
2018-01-26T10:55:24.322Z,30.97
2018-01-26T10:57:52.418Z,32.30
2018-01-26T11:00:20.360Z,32.10
2018-01-26T11:02:48.310Z,37.87
2018-01-26T11:05:16.352Z,33.20
2018-01-26T11:07:44.266Z,35.03
2018-01-26T11:10:12.187Z,39.93
2018-01-26T11:12:40.132Z,32.63
2018-01-26T11:15:08.047Z,32.33
2018-01-26T11:17:35.995Z,32.93
2018-01-26T11:20:03.934Z,31.40
2018-01-26T11:22:31.862Z,33.97
2018-01-26T11:25:00.497Z,35.10
2018-01-26T11:27:28.478Z,36.00
2018-01-26T11:29:56.398Z,37.00
2018-01-26T11:32:24.351Z,40.10
2018-01-26T11:34:52.293Z,39.97
2018-01-26T11:37:20.220Z,33.80
2018-01-26T11:39:48.174Z,31.80
2018-01-26T11:42:16.085Z,32.40
2018-01-26T11:44:44.171Z,34.27
2018-01-26T11:47:12.210Z,34.00
2018-01-26T11:49:40.157Z,35.87
2018-01-26T11:52:08.079Z,34.00
2018-01-26T11:54:36.033Z,41.33
2018-01-26T11:57:03.962Z,42.83
2018-01-26T11:59:32.121Z,45.00
2018-01-26T12:02:00.084Z,43.33
2018-01-26T12:04:28.019Z,41.50
2018-01-26T12:06:55.941Z,45.70
2018-01-26T12:09:23.907Z,49.87
2018-01-26T12:11:51.862Z,50.10
2018-01-26T12:14:19.797Z,51.10
2018-01-26T12:16:47.733Z,41.43
2018-01-26T12:19:15.686Z,44.10
2018-01-26T12:21:43.842Z,48.47
2018-01-26T12:24:11.964Z,51.17
2018-01-26T12:26:39.854Z,52.30
2018-01-26T12:29:07.820Z,48.90
2018-01-26T12:31:35.765Z,55.40
2018-01-26T12:34:03.683Z,50.67
2018-01-26T12:36:31.624Z,55.43
2018-01-26T12:38:59.593Z,46.57
2018-01-26T12:41:27.517Z,50.33
2018-01-26T12:43:55.465Z,50.80
2018-01-26T12:46:23.469Z,49.60
2018-01-26T12:48:51.402Z,55.20
2018-01-26T12:51:19.343Z,54.97
2018-01-26T12:53:47.289Z,59.77
2018-01-26T12:56:15.226Z,59.53
2018-01-26T12:58:43.253Z,59.10
2018-01-26T13:01:11.178Z,58.53
2018-01-26T13:03:39.087Z,55.40
2018-01-26T13:06:07.032Z,59.43
2018-01-26T13:08:34.948Z,58.73
2018-01-26T13:11:02.878Z,61.37
2018-01-26T13:13:31.347Z,54.80
2018-01-26T13:15:59.275Z,57.33
2018-01-26T13:18:27.199Z,55.47
2018-01-26T13:20:55.144Z,59.47
2018-01-26T13:23:23.098Z,62.90
2018-01-26T13:25:51.005Z,56.80
2018-01-26T13:28:18.937Z,59.37
2018-01-26T13:30:46.988Z,52.57
2018-01-26T13:33:14.909Z,56.13
2018-01-26T13:35:42.854Z,58.60
2018-01-26T13:38:10.787Z,63.40
2018-01-26T13:40:38.775Z,60.67
2018-01-26T13:43:06.690Z,57.53
2018-01-26T13:45:34.598Z,59.53
2018-01-26T13:48:02.525Z,55.07
2018-01-26T13:50:30.458Z,66.03
2018-01-26T13:52:58.395Z,108.93
2018-01-26T13:55:26.411Z,150.83
2018-01-26T13:57:54.356Z,79.00
2018-01-26T14:00:22.354Z,62.30
2018-01-26T14:02:50.283Z,111.87
2018-01-26T14:05:18.258Z,100.47
2018-01-26T14:07:46.186Z,69.00
2018-01-26T14:10:14.125Z,100.23
2018-01-26T14:12:42.057Z,66.30
2018-01-26T14:15:10.042Z,55.53
2018-01-26T14:17:38.046Z,56.70
2018-01-26T14:20:05.985Z,50.90
2018-01-26T14:22:33.898Z,59.60
2018-01-26T14:25:01.917Z,55.93
2018-01-26T14:27:29.897Z,57.10
2018-01-26T14:29:57.874Z,66.53
2018-01-26T14:32:25.806Z,62.50
2018-01-26T14:34:53.755Z,58.93
2018-01-26T14:37:21.711Z,57.73
2018-01-26T14:39:49.669Z,58.73
2018-01-26T14:42:17.602Z,67.47
2018-01-26T14:44:45.551Z,73.07
2018-01-26T14:47:13.501Z,66.57
2018-01-26T14:49:41.458Z,86.90
2018-01-26T14:52:09.421Z,74.70
2018-01-26T14:54:37.331Z,124.47
2018-01-26T14:57:05.274Z,95.97
2018-01-26T14:59:33.227Z,113.93
2018-01-26T15:02:01.297Z,95.60
2018-01-26T15:04:29.246Z,95.43
2018-01-26T15:06:57.176Z,94.90
2018-01-26T15:09:25.103Z,67.13
2018-01-26T15:11:53.074Z,74.00
2018-01-26T15:14:20.986Z,76.70
2018-01-26T15:16:48.912Z,76.90
2018-01-26T15:19:16.841Z,75.57
2018-01-26T15:21:45.025Z,69.63
2018-01-26T15:24:12.961Z,78.20
2018-01-26T15:26:40.907Z,75.07
2018-01-26T15:29:09.687Z,73.57
2018-01-26T15:31:37.653Z,71.30
2018-01-26T15:34:05.559Z,73.20
2018-01-26T15:36:33.501Z,68.70
2018-01-26T15:39:01.457Z,84.00
2018-01-26T15:41:29.514Z,79.00
2018-01-26T15:43:57.446Z,75.53
2018-01-26T15:46:25.390Z,91.63
2018-01-26T15:48:53.350Z,86.73
2018-01-26T15:51:21.302Z,91.23
2018-01-26T15:53:49.270Z,93.00
2018-01-26T15:56:17.180Z,101.40
2018-01-26T15:58:45.115Z,103.07
2018-01-26T16:01:13.055Z,117.20
2018-01-26T16:03:41.111Z,120.30
2018-01-26T16:06:09.047Z,153.97
2018-01-26T16:08:36.985Z,159.53
2018-01-26T16:11:04.906Z,192.83
2018-01-26T16:13:32.858Z,153.33
2018-01-26T16:16:03.648Z,159.23
2018-01-26T16:18:31.726Z,139.37
2018-01-26T16:21:04.345Z,114.73
2018-01-26T16:23:32.311Z,118.33
2018-01-26T16:26:00.242Z,101.53
2018-01-26T16:28:28.186Z,107.53
2018-01-26T16:30:56.118Z,97.00
2018-01-26T16:33:24.047Z,92.20
2018-01-26T16:35:51.976Z,95.87
2018-01-26T16:38:19.918Z,90.80
2018-01-26T16:40:47.852Z,98.37
2018-01-26T16:43:15.841Z,79.73
2018-01-26T16:45:43.809Z,96.57
2018-01-26T16:48:11.755Z,101.00
2018-01-26T16:50:39.693Z,99.07
2018-01-26T16:53:07.636Z,94.17
2018-01-26T16:55:35.597Z,90.20
2018-01-26T16:58:03.575Z,83.70
2018-01-26T17:00:31.541Z,83.93
2018-01-26T17:02:59.517Z,94.17
2018-01-26T17:05:27.442Z,116.67
2018-01-26T17:07:55.385Z,119.57
2018-01-26T17:10:23.310Z,98.50
2018-01-26T17:12:51.303Z,72.00
2018-01-26T17:15:19.189Z,68.07
2018-01-26T17:17:47.154Z,67.13
2018-01-26T17:20:15.097Z,64.93
2018-01-26T17:22:43.047Z,60.57
2018-01-26T17:25:11.002Z,68.00
2018-01-26T17:27:39.083Z,67.27
2018-01-26T17:30:06.991Z,69.30
2018-01-26T17:32:35.014Z,67.77
2018-01-26T17:35:02.955Z,60.77
2018-01-26T17:37:31.013Z,69.87
2018-01-26T17:39:58.913Z,62.60
2018-01-26T17:42:26.867Z,130.83
2018-01-26T17:44:54.807Z,91.30
2018-01-26T17:47:22.726Z,106.10
2018-01-26T17:49:50.685Z,77.60
2018-01-26T17:52:18.590Z,83.00
2018-01-26T17:54:46.606Z,77.20
2018-01-26T17:57:14.523Z,83.83
2018-01-26T17:59:42.465Z,94.03
2018-01-26T18:02:10.410Z,106.40
2018-01-26T18:04:38.353Z,71.60
2018-01-26T18:07:06.307Z,72.63
2018-01-26T18:09:34.546Z,79.03
2018-01-26T18:12:02.473Z,70.90
2018-01-26T18:14:30.423Z,73.43
2018-01-26T18:16:58.358Z,65.40
2018-01-26T18:19:26.323Z,71.63
2018-01-26T18:21:55.048Z,73.03
2018-01-26T18:24:23.899Z,67.73
2018-01-26T18:26:51.836Z,81.40
2018-01-26T18:29:19.774Z,74.43
2018-01-26T18:31:48.055Z,68.67
2018-01-26T18:34:15.998Z,76.37
2018-01-26T18:36:43.941Z,74.57
2018-01-26T18:39:11.897Z,81.47
2018-01-26T18:41:39.857Z,69.77
2018-01-26T18:44:07.787Z,69.20
2018-01-26T18:46:35.742Z,56.37
2018-01-26T18:49:04.014Z,71.70
2018-01-26T18:51:33.045Z,74.03
2018-01-26T18:54:00.961Z,71.40
2018-01-26T18:56:28.925Z,74.43
2018-01-26T18:58:56.937Z,71.93
2018-01-26T19:01:24.873Z,66.90
2018-01-26T19:03:52.879Z,74.20
2018-01-26T19:06:20.808Z,76.03
2018-01-26T19:08:48.750Z,158.17
2018-01-26T19:11:16.750Z,126.10
2018-01-26T19:13:44.674Z,116.87
2018-01-26T19:16:12.594Z,113.33
2018-01-26T19:18:40.552Z,111.63
2018-01-26T19:21:08.482Z,79.23
2018-01-26T19:23:36.451Z,192.07
2018-01-26T19:26:04.422Z,125.10
2018-01-26T19:28:32.332Z,116.80
2018-01-26T19:31:00.302Z,130.60
2018-01-26T19:33:29.206Z,78.20
2018-01-26T19:35:57.113Z,73.20
2018-01-26T19:38:25.059Z,77.27
2018-01-26T19:40:53.003Z,70.97
2018-01-26T19:43:20.924Z,80.33
2018-01-26T19:45:49.326Z,72.43
2018-01-26T19:48:17.243Z,78.80
2018-01-26T19:50:45.180Z,70.67
2018-01-26T19:53:13.102Z,77.40
2018-01-26T19:55:41.849Z,74.40
2018-01-26T19:58:09.796Z,66.40
2018-01-26T20:00:37.776Z,84.37
2018-01-26T20:03:17.401Z,75.97
2018-01-26T20:05:50.944Z,78.50
2018-01-26T20:08:30.207Z,90.30
2018-01-26T20:10:58.351Z,91.03
2018-01-26T20:13:28.069Z,95.60
2018-01-26T20:15:58.637Z,90.57
2018-01-26T20:18:26.674Z,79.60
2018-01-26T20:20:54.596Z,75.40
2018-01-26T20:23:22.539Z,83.57
2018-01-26T20:25:50.453Z,75.13
2018-01-26T20:28:18.434Z,75.87
2018-01-26T20:30:46.376Z,70.90
2018-01-26T20:33:14.310Z,74.03
2018-01-26T20:35:42.258Z,63.60
2018-01-26T20:38:10.261Z,70.23
2018-01-26T20:40:38.189Z,59.43
2018-01-26T20:43:06.118Z,68.70
2018-01-26T20:45:34.133Z,66.57
2018-01-26T20:48:02.066Z,61.83
2018-01-26T20:50:30.018Z,59.50
2018-01-26T20:52:57.952Z,64.17
2018-01-26T20:55:26.283Z,66.40
2018-01-26T20:57:54.310Z,72.30
2018-01-26T21:00:22.233Z,63.60
2018-01-26T21:02:50.185Z,66.30
2018-01-26T21:05:18.150Z,63.23
2018-01-26T21:07:46.332Z,67.07
2018-01-26T21:10:15.581Z,61.43
2018-01-26T21:12:43.538Z,62.93
2018-01-26T21:15:11.539Z,56.07
2018-01-26T21:17:39.534Z,68.00
2018-01-26T21:20:07.508Z,59.87
2018-01-26T21:22:35.471Z,63.73
2018-01-26T21:25:03.413Z,57.87
2018-01-26T21:27:31.369Z,56.83
2018-01-26T21:29:59.315Z,61.60
2018-01-26T21:32:28.113Z,58.70
2018-01-26T21:34:56.103Z,61.07
2018-01-26T21:37:24.109Z,54.40
2018-01-26T21:39:52.210Z,60.40
2018-01-26T21:42:20.187Z,68.90
2018-01-26T21:44:48.118Z,79.60
2018-01-26T21:47:16.053Z,94.73
2018-01-26T21:49:44.028Z,144.27
2018-01-26T21:52:11.985Z,125.63
2018-01-26T21:54:40.040Z,119.97
2018-01-26T21:57:07.978Z,106.10
2018-01-26T21:59:35.932Z,102.97
2018-01-26T22:02:04.792Z,115.07
2018-01-26T22:04:38.394Z,79.70
2018-01-26T22:07:12.107Z,97.50
2018-01-26T22:09:40.082Z,83.90
2018-01-26T22:12:08.117Z,81.83
2018-01-26T22:14:36.135Z,66.30
2018-01-26T22:17:04.991Z,68.60
2018-01-26T22:19:33.054Z,60.13
2018-01-26T22:22:00.977Z,67.90
2018-01-26T22:24:28.885Z,57.80
2018-01-26T22:26:56.825Z,55.40
2018-01-26T22:29:24.898Z,47.87
2018-01-26T22:31:52.849Z,46.50
2018-01-26T22:34:20.969Z,58.83
2018-01-26T22:36:48.905Z,84.93
2018-01-26T22:39:16.867Z,99.80
2018-01-26T22:41:44.943Z,79.43
2018-01-26T22:44:12.898Z,51.27
2018-01-26T22:46:41.177Z,56.77
2018-01-26T22:49:09.326Z,45.57
2018-01-26T22:51:37.254Z,48.47
2018-01-26T22:54:05.235Z,50.70
2018-01-26T22:56:33.199Z,51.90
2018-01-26T22:59:01.140Z,56.30
2018-01-26T23:01:29.157Z,45.63
2018-01-26T23:03:57.146Z,54.80
2018-01-26T23:06:25.078Z,55.07
2018-01-26T23:08:53.178Z,60.00
2018-01-26T23:11:21.109Z,55.73
2018-01-26T23:13:49.063Z,58.23
2018-01-26T23:16:16.975Z,58.37
2018-01-26T23:18:44.911Z,66.20
2018-01-26T23:21:12.866Z,63.73
2018-01-26T23:23:40.818Z,60.10
2018-01-26T23:26:08.774Z,68.30
2018-01-26T23:28:36.737Z,52.40
2018-01-26T23:31:04.713Z,67.03
2018-01-26T23:33:32.760Z,60.93
2018-01-26T23:36:00.670Z,56.80
2018-01-26T23:38:28.832Z,69.47
2018-01-26T23:40:56.853Z,66.30
2018-01-26T23:43:24.800Z,56.97
2018-01-26T23:45:52.739Z,62.43
2018-01-26T23:48:20.696Z,65.30
2018-01-26T23:50:48.637Z,60.83
2018-01-26T23:53:16.712Z,63.83
2018-01-26T23:55:45.261Z,60.40
2018-01-26T23:58:13.348Z,60.07
